sensor_id;sensor_type;location;lat;lon;timestamp;P1;durP1;ratioP1;P2;durP2;ratioP2
28836;SDS011;50669;50.982;11.022;2023-02-15T00:01:40;37.85;;;21.05;;
28836;SDS011;50669;50.982;11.022;2023-02-15T00:04:09;31.08;;;17.88;;
28836;SDS011;50669;50.982;11.022;2023-02-15T00:06:38;29.25;;;17.42;;
28836;SDS011;50669;50.982;11.022;2023-02-15T00:09:03;33.05;;;17.08;;
28836;SDS011;50669;50.982;11.022;2023-02-15T00:11:29;30.17;;;16.33;;
28836;SDS011;50669;50.982;11.022;2023-02-15T00:14:14;28.50;;;16.20;;
28836;SDS011;50669;50.982;11.022;2023-02-15T00:16:41;30.90;;;17.48;;
28836;SDS011;50669;50.982;11.022;2023-02-15T00:19:08;28.65;;;16.20;;
28836;SDS011;50669;50.982;11.022;2023-02-15T00:21:35;27.65;;;15.25;;
28836;SDS011;50669;50.982;11.022;2023-02-15T00:24:03;23.52;;;14.10;;
28836;SDS011;50669;50.982;11.022;2023-02-15T00:26:32;27.30;;;15.20;;
28836;SDS011;50669;50.982;11.022;2023-02-15T00:28:58;25.83;;;14.55;;
28836;SDS011;50669;50.982;11.022;2023-02-15T00:31:28;27.02;;;14.73;;
28836;SDS011;50669;50.982;11.022;2023-02-15T00:33:56;23.25;;;13.52;;
28836;SDS011;50669;50.982;11.022;2023-02-15T00:36:28;22.52;;;13.48;;
28836;SDS011;50669;50.982;11.022;2023-02-15T00:38:56;23.55;;;13.05;;
28836;SDS011;50669;50.982;11.022;2023-02-15T00:41:22;23.67;;;14.10;;
28836;SDS011;50669;50.982;11.022;2023-02-15T00:43:48;22.92;;;13.13;;
28836;SDS011;50669;50.982;11.022;2023-02-15T00:46:13;23.02;;;13.20;;
28836;SDS011;50669;50.982;11.022;2023-02-15T00:48:39;20.80;;;12.48;;
28836;SDS011;50669;50.982;11.022;2023-02-15T00:51:04;21.60;;;12.23;;
28836;SDS011;50669;50.982;11.022;2023-02-15T00:53:30;23.80;;;13.23;;
28836;SDS011;50669;50.982;11.022;2023-02-15T00:55:58;20.67;;;12.55;;
28836;SDS011;50669;50.982;11.022;2023-02-15T00:58:24;19.92;;;11.90;;
28836;SDS011;50669;50.982;11.022;2023-02-15T01:00:50;19.60;;;10.40;;
28836;SDS011;50669;50.982;11.022;2023-02-15T01:03:17;18.48;;;11.02;;
28836;SDS011;50669;50.982;11.022;2023-02-15T01:05:46;18.42;;;10.68;;
28836;SDS011;50669;50.982;11.022;2023-02-15T01:08:13;18.08;;;10.65;;
28836;SDS011;50669;50.982;11.022;2023-02-15T01:10:41;18.48;;;10.60;;
28836;SDS011;50669;50.982;11.022;2023-02-15T01:13:09;17.05;;;10.50;;
28836;SDS011;50669;50.982;11.022;2023-02-15T01:15:35;18.77;;;10.68;;
28836;SDS011;50669;50.982;11.022;2023-02-15T01:18:01;17.80;;;10.25;;
28836;SDS011;50669;50.982;11.022;2023-02-15T01:20:27;18.55;;;9.65;;
28836;SDS011;50669;50.982;11.022;2023-02-15T01:22:54;16.67;;;9.38;;
28836;SDS011;50669;50.982;11.022;2023-02-15T01:25:22;15.98;;;9.07;;
28836;SDS011;50669;50.982;11.022;2023-02-15T01:27:48;15.40;;;9.02;;
28836;SDS011;50669;50.982;11.022;2023-02-15T01:30:16;15.50;;;8.60;;
28836;SDS011;50669;50.982;11.022;2023-02-15T01:32:42;13.55;;;8.32;;
28836;SDS011;50669;50.982;11.022;2023-02-15T01:35:09;13.70;;;8.77;;
28836;SDS011;50669;50.982;11.022;2023-02-15T01:37:35;15.02;;;8.55;;
28836;SDS011;50669;50.982;11.022;2023-02-15T01:40:02;15.48;;;9.02;;
28836;SDS011;50669;50.982;11.022;2023-02-15T01:42:32;15.00;;;8.75;;
28836;SDS011;50669;50.982;11.022;2023-02-15T01:44:59;12.95;;;8.10;;
28836;SDS011;50669;50.982;11.022;2023-02-15T01:50:47;15.50;;;8.77;;
28836;SDS011;50669;50.982;11.022;2023-02-15T01:52:52;16.88;;;9.18;;
28836;SDS011;50669;50.982;11.022;2023-02-15T01:55:22;16.00;;;9.27;;
28836;SDS011;50669;50.982;11.022;2023-02-15T01:57:50;16.25;;;9.18;;
28836;SDS011;50669;50.982;11.022;2023-02-15T02:00:16;18.08;;;10.20;;
28836;SDS011;50669;50.982;11.022;2023-02-15T02:02:43;16.90;;;9.68;;
28836;SDS011;50669;50.982;11.022;2023-02-15T02:05:11;15.35;;;9.35;;
28836;SDS011;50669;50.982;11.022;2023-02-15T02:07:38;14.88;;;9.50;;
28836;SDS011;50669;50.982;11.022;2023-02-15T02:10:07;17.55;;;9.70;;
28836;SDS011;50669;50.982;11.022;2023-02-15T02:12:37;16.38;;;9.32;;
28836;SDS011;50669;50.982;11.022;2023-02-15T02:15:05;16.42;;;9.43;;
28836;SDS011;50669;50.982;11.022;2023-02-15T02:20:29;15.63;;;8.82;;
28836;SDS011;50669;50.982;11.022;2023-02-15T02:26:02;17.10;;;10.15;;
28836;SDS011;50669;50.982;11.022;2023-02-15T02:42:06;17.60;;;9.00;;
28836;SDS011;50669;50.982;11.022;2023-02-15T02:47:50;17.00;;;9.23;;
28836;SDS011;50669;50.982;11.022;2023-02-15T02:50:13;17.23;;;9.00;;
28836;SDS011;50669;50.982;11.022;2023-02-15T02:57:55;17.30;;;9.65;;
28836;SDS011;50669;50.982;11.022;2023-02-15T03:00:26;17.48;;;9.77;;
28836;SDS011;50669;50.982;11.022;2023-02-15T03:03:00;16.83;;;9.13;;
28836;SDS011;50669;50.982;11.022;2023-02-15T03:05:36;16.70;;;9.00;;
28836;SDS011;50669;50.982;11.022;2023-02-15T03:08:06;22.48;;;9.55;;
28836;SDS011;50669;50.982;11.022;2023-02-15T03:10:35;14.80;;;8.63;;
28836;SDS011;50669;50.982;11.022;2023-02-15T03:13:03;13.00;;;7.57;;
28836;SDS011;50669;50.982;11.022;2023-02-15T03:15:36;17.15;;;8.25;;
28836;SDS011;50669;50.982;11.022;2023-02-15T03:18:24;34.95;;;9.55;;
28836;SDS011;50669;50.982;11.022;2023-02-15T03:20:54;30.03;;;9.10;;
28836;SDS011;50669;50.982;11.022;2023-02-15T03:23:21;43.63;;;10.63;;
28836;SDS011;50669;50.982;11.022;2023-02-15T03:25:57;29.10;;;10.80;;
28836;SDS011;50669;50.982;11.022;2023-02-15T03:33:38;27.85;;;9.23;;
28836;SDS011;50669;50.982;11.022;2023-02-15T03:36:18;31.42;;;10.10;;
28836;SDS011;50669;50.982;11.022;2023-02-15T03:38:54;35.08;;;10.88;;
28836;SDS011;50669;50.982;11.022;2023-02-15T03:41:26;37.65;;;11.32;;
28836;SDS011;50669;50.982;11.022;2023-02-15T03:43:57;35.28;;;11.02;;
28836;SDS011;50669;50.982;11.022;2023-02-15T03:46:29;31.95;;;11.25;;
28836;SDS011;50669;50.982;11.022;2023-02-15T03:49:21;34.50;;;10.32;;
28836;SDS011;50669;50.982;11.022;2023-02-15T03:51:57;29.77;;;11.75;;
28836;SDS011;50669;50.982;11.022;2023-02-15T03:54:31;30.30;;;9.98;;
28836;SDS011;50669;50.982;11.022;2023-02-15T03:57:15;31.85;;;11.25;;
28836;SDS011;50669;50.982;11.022;2023-02-15T04:00:00;32.83;;;11.68;;
28836;SDS011;50669;50.982;11.022;2023-02-15T04:05:31;45.28;;;13.43;;
28836;SDS011;50669;50.982;11.022;2023-02-15T04:07:56;40.45;;;12.23;;
28836;SDS011;50669;50.982;11.022;2023-02-15T04:10:22;32.63;;;13.07;;
28836;SDS011;50669;50.982;11.022;2023-02-15T04:13:06;35.75;;;12.77;;
28836;SDS011;50669;50.982;11.022;2023-02-15T04:15:32;32.88;;;13.35;;
28836;SDS011;50669;50.982;11.022;2023-02-15T04:18:18;28.67;;;13.30;;
28836;SDS011;50669;50.982;11.022;2023-02-15T04:20:44;29.90;;;13.15;;
28836;SDS011;50669;50.982;11.022;2023-02-15T04:23:29;34.65;;;13.63;;
28836;SDS011;50669;50.982;11.022;2023-02-15T04:26:14;30.73;;;14.07;;
28836;SDS011;50669;50.982;11.022;2023-02-15T04:28:39;34.72;;;14.30;;
28836;SDS011;50669;50.982;11.022;2023-02-15T04:31:10;32.50;;;14.55;;
28836;SDS011;50669;50.982;11.022;2023-02-15T04:33:35;34.13;;;12.95;;
28836;SDS011;50669;50.982;11.022;2023-02-15T04:36:06;29.30;;;13.73;;
28836;SDS011;50669;50.982;11.022;2023-02-15T04:38:34;28.48;;;13.82;;
28836;SDS011;50669;50.982;11.022;2023-02-15T04:41:00;32.10;;;14.30;;
28836;SDS011;50669;50.982;11.022;2023-02-15T04:43:25;32.53;;;13.05;;
28836;SDS011;50669;50.982;11.022;2023-02-15T04:45:51;32.38;;;14.00;;
28836;SDS011;50669;50.982;11.022;2023-02-15T04:48:17;29.40;;;14.23;;
28836;SDS011;50669;50.982;11.022;2023-02-15T04:50:43;37.28;;;14.65;;
28836;SDS011;50669;50.982;11.022;2023-02-15T04:53:12;27.80;;;14.23;;
28836;SDS011;50669;50.982;11.022;2023-02-15T04:55:40;30.10;;;14.18;;
28836;SDS011;50669;50.982;11.022;2023-02-15T04:58:06;39.58;;;14.35;;
28836;SDS011;50669;50.982;11.022;2023-02-15T05:00:31;28.00;;;13.88;;
28836;SDS011;50669;50.982;11.022;2023-02-15T05:02:57;35.63;;;14.65;;
28836;SDS011;50669;50.982;11.022;2023-02-15T05:05:23;28.10;;;13.80;;
28836;SDS011;50669;50.982;11.022;2023-02-15T05:07:48;22.05;;;11.73;;
28836;SDS011;50669;50.982;11.022;2023-02-15T05:10:14;24.15;;;12.25;;
28836;SDS011;50669;50.982;11.022;2023-02-15T05:12:40;25.35;;;12.93;;
28836;SDS011;50669;50.982;11.022;2023-02-15T05:15:05;22.40;;;11.27;;
28836;SDS011;50669;50.982;11.022;2023-02-15T05:17:33;20.85;;;11.05;;
28836;SDS011;50669;50.982;11.022;2023-02-15T05:19:59;18.42;;;10.27;;
28836;SDS011;50669;50.982;11.022;2023-02-15T05:22:25;19.23;;;10.98;;
28836;SDS011;50669;50.982;11.022;2023-02-15T05:24:50;16.83;;;10.02;;
28836;SDS011;50669;50.982;11.022;2023-02-15T05:27:34;14.68;;;8.98;;
28836;SDS011;50669;50.982;11.022;2023-02-15T05:30:18;14.63;;;8.25;;
28836;SDS011;50669;50.982;11.022;2023-02-15T05:32:44;11.63;;;7.32;;
28836;SDS011;50669;50.982;11.022;2023-02-15T05:35:16;12.57;;;7.28;;
28836;SDS011;50669;50.982;11.022;2023-02-15T05:37:44;10.98;;;5.30;;
28836;SDS011;50669;50.982;11.022;2023-02-15T05:40:10;13.10;;;7.15;;
28836;SDS011;50669;50.982;11.022;2023-02-15T05:42:36;11.85;;;6.90;;
28836;SDS011;50669;50.982;11.022;2023-02-15T05:45:01;13.20;;;7.45;;
28836;SDS011;50669;50.982;11.022;2023-02-15T05:47:32;12.15;;;6.78;;
28836;SDS011;50669;50.982;11.022;2023-02-15T05:49:58;11.75;;;6.60;;
28836;SDS011;50669;50.982;11.022;2023-02-15T05:52:26;10.60;;;6.65;;
28836;SDS011;50669;50.982;11.022;2023-02-15T05:54:51;15.90;;;8.85;;
28836;SDS011;50669;50.982;11.022;2023-02-15T05:57:17;10.50;;;6.38;;
28836;SDS011;50669;50.982;11.022;2023-02-15T05:59:43;12.40;;;7.60;;
28836;SDS011;50669;50.982;11.022;2023-02-15T06:02:08;11.23;;;6.63;;
28836;SDS011;50669;50.982;11.022;2023-02-15T06:04:34;12.73;;;6.63;;
28836;SDS011;50669;50.982;11.022;2023-02-15T06:07:04;13.45;;;6.90;;
28836;SDS011;50669;50.982;11.022;2023-02-15T06:09:30;14.65;;;7.38;;
28836;SDS011;50669;50.982;11.022;2023-02-15T06:12:00;12.07;;;7.20;;
28836;SDS011;50669;50.982;11.022;2023-02-15T06:14:25;11.80;;;6.72;;
28836;SDS011;50669;50.982;11.022;2023-02-15T06:16:51;13.82;;;7.72;;
28836;SDS011;50669;50.982;11.022;2023-02-15T06:19:19;14.30;;;8.13;;
28836;SDS011;50669;50.982;11.022;2023-02-15T06:21:46;13.80;;;8.30;;
28836;SDS011;50669;50.982;11.022;2023-02-15T06:24:12;20.95;;;9.32;;
28836;SDS011;50669;50.982;11.022;2023-02-15T06:26:37;14.85;;;9.15;;
28836;SDS011;50669;50.982;11.022;2023-02-15T06:29:03;18.58;;;8.52;;
28836;SDS011;50669;50.982;11.022;2023-02-15T06:31:29;16.33;;;9.65;;
28836;SDS011;50669;50.982;11.022;2023-02-15T06:33:59;18.35;;;9.68;;
28836;SDS011;50669;50.982;11.022;2023-02-15T06:36:30;15.25;;;8.70;;
28836;SDS011;50669;50.982;11.022;2023-02-15T06:38:57;14.93;;;8.57;;
28836;SDS011;50669;50.982;11.022;2023-02-15T06:41:22;14.18;;;7.82;;
28836;SDS011;50669;50.982;11.022;2023-02-15T06:43:50;14.30;;;7.70;;
28836;SDS011;50669;50.982;11.022;2023-02-15T06:46:16;13.57;;;8.00;;
28836;SDS011;50669;50.982;11.022;2023-02-15T06:48:42;13.73;;;7.72;;
28836;SDS011;50669;50.982;11.022;2023-02-15T06:51:08;13.57;;;8.80;;
28836;SDS011;50669;50.982;11.022;2023-02-15T06:53:33;13.55;;;8.20;;
28836;SDS011;50669;50.982;11.022;2023-02-15T06:56:03;13.35;;;8.15;;
28836;SDS011;50669;50.982;11.022;2023-02-15T06:58:34;14.85;;;8.23;;
28836;SDS011;50669;50.982;11.022;2023-02-15T07:01:03;17.50;;;8.60;;
28836;SDS011;50669;50.982;11.022;2023-02-15T07:03:33;13.48;;;8.38;;
28836;SDS011;50669;50.982;11.022;2023-02-15T07:06:00;14.18;;;8.48;;
28836;SDS011;50669;50.982;11.022;2023-02-15T07:08:33;15.98;;;8.35;;
28836;SDS011;50669;50.982;11.022;2023-02-15T07:10:59;12.27;;;7.43;;
28836;SDS011;50669;50.982;11.022;2023-02-15T07:13:43;12.27;;;7.32;;
28836;SDS011;50669;50.982;11.022;2023-02-15T07:16:10;16.17;;;7.90;;
28836;SDS011;50669;50.982;11.022;2023-02-15T07:18:36;10.02;;;6.90;;
28836;SDS011;50669;50.982;11.022;2023-02-15T07:21:04;14.25;;;6.93;;
28836;SDS011;50669;50.982;11.022;2023-02-15T07:23:34;12.70;;;6.90;;
28836;SDS011;50669;50.982;11.022;2023-02-15T07:26:00;14.35;;;7.55;;
28836;SDS011;50669;50.982;11.022;2023-02-15T07:28:26;12.57;;;6.97;;
28836;SDS011;50669;50.982;11.022;2023-02-15T07:30:53;11.68;;;6.63;;
28836;SDS011;50669;50.982;11.022;2023-02-15T07:33:18;10.05;;;6.95;;
28836;SDS011;50669;50.982;11.022;2023-02-15T07:35:55;14.02;;;7.50;;
28836;SDS011;50669;50.982;11.022;2023-02-15T07:38:26;22.77;;;7.75;;
28836;SDS011;50669;50.982;11.022;2023-02-15T07:40:58;14.65;;;7.68;;
28836;SDS011;50669;50.982;11.022;2023-02-15T07:43:28;12.68;;;7.13;;
28836;SDS011;50669;50.982;11.022;2023-02-15T07:45:58;18.52;;;7.30;;
28836;SDS011;50669;50.982;11.022;2023-02-15T07:48:28;18.63;;;9.10;;
28836;SDS011;50669;50.982;11.022;2023-02-15T07:50:54;26.60;;;13.32;;
28836;SDS011;50669;50.982;11.022;2023-02-15T07:53:23;23.67;;;10.57;;
28836;SDS011;50669;50.982;11.022;2023-02-15T07:55:49;14.80;;;8.43;;
28836;SDS011;50669;50.982;11.022;2023-02-15T07:58:14;15.52;;;8.55;;
28836;SDS011;50669;50.982;11.022;2023-02-15T08:00:40;16.77;;;9.10;;
28836;SDS011;50669;50.982;11.022;2023-02-15T08:03:26;14.68;;;8.88;;
28836;SDS011;50669;50.982;11.022;2023-02-15T08:05:55;15.38;;;8.63;;
28836;SDS011;50669;50.982;11.022;2023-02-15T08:08:22;15.85;;;9.30;;
28836;SDS011;50669;50.982;11.022;2023-02-15T08:11:06;15.52;;;8.90;;
28836;SDS011;50669;50.982;11.022;2023-02-15T08:19:05;12.85;;;7.85;;
28836;SDS011;50669;50.982;11.022;2023-02-15T08:21:32;14.70;;;8.95;;
28836;SDS011;50669;50.982;11.022;2023-02-15T08:23:59;15.35;;;8.05;;
28836;SDS011;50669;50.982;11.022;2023-02-15T08:26:30;13.68;;;8.27;;
28836;SDS011;50669;50.982;11.022;2023-02-15T08:28:57;12.48;;;7.50;;
28836;SDS011;50669;50.982;11.022;2023-02-15T08:31:24;12.23;;;7.22;;
28836;SDS011;50669;50.982;11.022;2023-02-15T08:33:53;11.93;;;7.45;;
28836;SDS011;50669;50.982;11.022;2023-02-15T08:36:20;13.27;;;7.82;;
28836;SDS011;50669;50.982;11.022;2023-02-15T08:38:47;13.13;;;7.43;;
28836;SDS011;50669;50.982;11.022;2023-02-15T08:41:15;14.65;;;8.32;;
28836;SDS011;50669;50.982;11.022;2023-02-15T08:43:44;12.43;;;7.57;;
28836;SDS011;50669;50.982;11.022;2023-02-15T08:46:14;18.55;;;9.57;;
28836;SDS011;50669;50.982;11.022;2023-02-15T08:48:44;16.85;;;9.70;;
28836;SDS011;50669;50.982;11.022;2023-02-15T08:51:11;16.70;;;9.75;;
28836;SDS011;50669;50.982;11.022;2023-02-15T08:53:45;17.40;;;10.77;;
28836;SDS011;50669;50.982;11.022;2023-02-15T08:56:16;16.30;;;9.32;;
28836;SDS011;50669;50.982;11.022;2023-02-15T08:58:44;16.92;;;10.13;;
28836;SDS011;50669;50.982;11.022;2023-02-15T09:01:16;18.35;;;10.32;;
28836;SDS011;50669;50.982;11.022;2023-02-15T09:03:43;17.05;;;9.20;;
28836;SDS011;50669;50.982;11.022;2023-02-15T09:06:10;16.02;;;9.55;;
28836;SDS011;50669;50.982;11.022;2023-02-15T09:08:36;16.08;;;9.32;;
28836;SDS011;50669;50.982;11.022;2023-02-15T09:11:09;17.98;;;9.68;;
28836;SDS011;50669;50.982;11.022;2023-02-15T09:13:48;20.77;;;10.88;;
28836;SDS011;50669;50.982;11.022;2023-02-15T09:16:21;25.13;;;9.98;;
28836;SDS011;50669;50.982;11.022;2023-02-15T09:18:49;20.55;;;10.32;;
28836;SDS011;50669;50.982;11.022;2023-02-15T09:21:18;16.98;;;9.20;;
28836;SDS011;50669;50.982;11.022;2023-02-15T09:23:46;21.65;;;9.57;;
28836;SDS011;50669;50.982;11.022;2023-02-15T09:26:17;20.40;;;9.50;;
28836;SDS011;50669;50.982;11.022;2023-02-15T09:28:46;21.67;;;10.25;;
28836;SDS011;50669;50.982;11.022;2023-02-15T09:31:15;21.05;;;11.25;;
28836;SDS011;50669;50.982;11.022;2023-02-15T09:33:43;19.58;;;10.07;;
28836;SDS011;50669;50.982;11.022;2023-02-15T09:36:22;19.42;;;10.05;;
28836;SDS011;50669;50.982;11.022;2023-02-15T09:38:52;24.67;;;10.15;;
28836;SDS011;50669;50.982;11.022;2023-02-15T09:52:33;28.30;;;12.48;;
28836;SDS011;50669;50.982;11.022;2023-02-15T09:55:21;25.23;;;10.85;;
28836;SDS011;50669;50.982;11.022;2023-02-15T10:06:25;21.55;;;11.50;;
28836;SDS011;50669;50.982;11.022;2023-02-15T10:19:55;31.23;;;11.73;;
28836;SDS011;50669;50.982;11.022;2023-02-15T10:28:29;22.00;;;11.10;;
28836;SDS011;50669;50.982;11.022;2023-02-15T10:34:18;18.10;;;10.40;;
28836;SDS011;50669;50.982;11.022;2023-02-15T10:46:44;19.33;;;11.10;;
28836;SDS011;50669;50.982;11.022;2023-02-15T10:54:32;23.23;;;10.60;;
28836;SDS011;50669;50.982;11.022;2023-02-15T10:57:13;18.30;;;10.23;;
28836;SDS011;50669;50.982;11.022;2023-02-15T11:02:50;13.02;;;8.75;;
28836;SDS011;50669;50.982;11.022;2023-02-15T11:05:26;14.13;;;8.95;;
28836;SDS011;50669;50.982;11.022;2023-02-15T11:08:15;13.73;;;9.18;;
28836;SDS011;50669;50.982;11.022;2023-02-15T11:10:43;14.52;;;9.15;;
28836;SDS011;50669;50.982;11.022;2023-02-15T11:13:17;19.23;;;9.02;;
28836;SDS011;50669;50.982;11.022;2023-02-15T11:15:51;21.77;;;8.48;;
28836;SDS011;50669;50.982;11.022;2023-02-15T11:18:23;13.73;;;8.60;;
28836;SDS011;50669;50.982;11.022;2023-02-15T11:21:03;14.23;;;9.15;;
28836;SDS011;50669;50.982;11.022;2023-02-15T11:23:53;16.73;;;11.10;;
28836;SDS011;50669;50.982;11.022;2023-02-15T11:34:18;11.80;;;9.30;;
28836;SDS011;50669;50.982;11.022;2023-02-15T11:36:52;13.43;;;9.15;;
28836;SDS011;50669;50.982;11.022;2023-02-15T11:39:23;10.80;;;9.05;;
28836;SDS011;50669;50.982;11.022;2023-02-15T11:41:54;10.15;;;8.63;;
28836;SDS011;50669;50.982;11.022;2023-02-15T11:44:35;17.40;;;10.40;;
28836;SDS011;50669;50.982;11.022;2023-02-15T11:47:09;27.95;;;11.80;;
28836;SDS011;50669;50.982;11.022;2023-02-15T11:49:38;17.77;;;9.73;;
28836;SDS011;50669;50.982;11.022;2023-02-15T11:52:05;15.27;;;10.00;;
28836;SDS011;50669;50.982;11.022;2023-02-15T11:54:39;16.77;;;11.27;;
28836;SDS011;50669;50.982;11.022;2023-02-15T11:59:49;22.50;;;11.77;;
28836;SDS011;50669;50.982;11.022;2023-02-15T12:02:29;15.27;;;10.37;;
28836;SDS011;50669;50.982;11.022;2023-02-15T12:05:01;15.15;;;9.85;;
28836;SDS011;50669;50.982;11.022;2023-02-15T12:07:35;14.13;;;9.55;;
28836;SDS011;50669;50.982;11.022;2023-02-15T12:12:42;14.95;;;10.80;;
28836;SDS011;50669;50.982;11.022;2023-02-15T12:15:08;15.30;;;9.15;;
28836;SDS011;50669;50.982;11.022;2023-02-15T12:17:41;14.95;;;10.02;;
28836;SDS011;50669;50.982;11.022;2023-02-15T12:23:41;13.57;;;9.07;;
28836;SDS011;50669;50.982;11.022;2023-02-15T12:30:59;11.63;;;8.90;;
28836;SDS011;50669;50.982;11.022;2023-02-15T12:33:30;12.85;;;8.85;;
28836;SDS011;50669;50.982;11.022;2023-02-15T12:38:39;10.80;;;8.73;;
28836;SDS011;50669;50.982;11.022;2023-02-15T12:43:47;10.75;;;8.13;;
28836;SDS011;50669;50.982;11.022;2023-02-15T12:47:16;9.63;;;8.43;;
28836;SDS011;50669;50.982;11.022;2023-02-15T12:52:42;13.77;;;7.82;;
28836;SDS011;50669;50.982;11.022;2023-02-15T12:57:48;8.40;;;7.18;;
28836;SDS011;50669;50.982;11.022;2023-02-15T13:00:32;11.85;;;8.07;;
28836;SDS011;50669;50.982;11.022;2023-02-15T13:02:57;11.85;;;7.53;;
28836;SDS011;50669;50.982;11.022;2023-02-15T13:05:32;9.05;;;6.38;;
28836;SDS011;50669;50.982;11.022;2023-02-15T13:08:14;9.80;;;7.20;;
28836;SDS011;50669;50.982;11.022;2023-02-15T13:11:02;7.50;;;6.57;;
28836;SDS011;50669;50.982;11.022;2023-02-15T13:13:38;7.60;;;6.40;;
28836;SDS011;50669;50.982;11.022;2023-02-15T13:16:17;6.90;;;6.20;;
28836;SDS011;50669;50.982;11.022;2023-02-15T13:18:52;11.23;;;6.45;;
28836;SDS011;50669;50.982;11.022;2023-02-15T13:21:23;7.05;;;6.35;;
28836;SDS011;50669;50.982;11.022;2023-02-15T13:23:57;7.35;;;6.65;;
28836;SDS011;50669;50.982;11.022;2023-02-15T13:26:41;7.70;;;6.63;;
28836;SDS011;50669;50.982;11.022;2023-02-15T13:29:23;10.18;;;7.85;;
28836;SDS011;50669;50.982;11.022;2023-02-15T13:31:51;7.03;;;6.32;;
28836;SDS011;50669;50.982;11.022;2023-02-15T13:34:31;6.97;;;6.28;;
28836;SDS011;50669;50.982;11.022;2023-02-15T13:51:07;11.40;;;6.60;;
28836;SDS011;50669;50.982;11.022;2023-02-15T14:26:23;16.33;;;7.22;;
28836;SDS011;50669;50.982;11.022;2023-02-15T14:31:38;12.65;;;9.02;;
28836;SDS011;50669;50.982;11.022;2023-02-15T14:34:08;9.60;;;5.65;;
28836;SDS011;50669;50.982;11.022;2023-02-15T14:36:51;7.97;;;5.13;;
28836;SDS011;50669;50.982;11.022;2023-02-15T14:42:38;13.23;;;5.43;;
28836;SDS011;50669;50.982;11.022;2023-02-15T14:45:24;8.75;;;5.60;;
28836;SDS011;50669;50.982;11.022;2023-02-15T14:48:00;9.68;;;5.55;;
28836;SDS011;50669;50.982;11.022;2023-02-15T14:50:42;10.98;;;5.90;;
28836;SDS011;50669;50.982;11.022;2023-02-15T14:58:36;7.53;;;4.97;;
28836;SDS011;50669;50.982;11.022;2023-02-15T15:03:42;11.30;;;6.47;;
28836;SDS011;50669;50.982;11.022;2023-02-15T15:08:54;8.52;;;6.32;;
28836;SDS011;50669;50.982;11.022;2023-02-15T15:14:00;9.73;;;6.20;;
28836;SDS011;50669;50.982;11.022;2023-02-15T15:18:53;10.80;;;6.65;;
28836;SDS011;50669;50.982;11.022;2023-02-15T15:32:39;9.85;;;5.60;;
28836;SDS011;50669;50.982;11.022;2023-02-15T15:49:47;12.45;;;6.50;;
28836;SDS011;50669;50.982;11.022;2023-02-15T15:52:14;8.60;;;6.50;;
28836;SDS011;50669;50.982;11.022;2023-02-15T15:54:46;8.65;;;6.07;;
28836;SDS011;50669;50.982;11.022;2023-02-15T15:57:24;9.75;;;6.35;;
28836;SDS011;50669;50.982;11.022;2023-02-15T15:59:51;13.82;;;7.07;;
28836;SDS011;50669;50.982;11.022;2023-02-15T16:02:21;9.90;;;6.78;;
28836;SDS011;50669;50.982;11.022;2023-02-15T16:04:48;18.33;;;10.20;;
28836;SDS011;50669;50.982;11.022;2023-02-15T16:12:22;11.02;;;6.78;;
28836;SDS011;50669;50.982;11.022;2023-02-15T16:14:49;11.13;;;7.70;;
28836;SDS011;50669;50.982;11.022;2023-02-15T16:17:19;10.07;;;7.25;;
28836;SDS011;50669;50.982;11.022;2023-02-15T16:19:49;18.02;;;9.07;;
28836;SDS011;50669;50.982;11.022;2023-02-15T16:22:18;16.73;;;7.78;;
28836;SDS011;50669;50.982;11.022;2023-02-15T16:27:50;16.42;;;10.43;;
28836;SDS011;50669;50.982;11.022;2023-02-15T16:33:06;20.73;;;9.00;;
28836;SDS011;50669;50.982;11.022;2023-02-15T16:35:52;15.65;;;9.07;;
28836;SDS011;50669;50.982;11.022;2023-02-15T16:38:34;17.90;;;10.35;;
28836;SDS011;50669;50.982;11.022;2023-02-15T16:41:20;14.00;;;8.15;;
28836;SDS011;50669;50.982;11.022;2023-02-15T16:43:53;16.33;;;8.63;;
28836;SDS011;50669;50.982;11.022;2023-02-15T16:48:59;17.30;;;10.50;;
28836;SDS011;50669;50.982;11.022;2023-02-15T16:51:29;22.33;;;13.88;;
28836;SDS011;50669;50.982;11.022;2023-02-15T16:53:57;13.00;;;8.80;;
28836;SDS011;50669;50.982;11.022;2023-02-15T16:56:33;17.15;;;9.88;;
28836;SDS011;50669;50.982;11.022;2023-02-15T16:59:02;14.65;;;9.93;;
28836;SDS011;50669;50.982;11.022;2023-02-15T17:01:29;17.13;;;9.93;;
28836;SDS011;50669;50.982;11.022;2023-02-15T17:04:10;16.88;;;10.35;;
28836;SDS011;50669;50.982;11.022;2023-02-15T17:09:33;16.25;;;9.32;;
28836;SDS011;50669;50.982;11.022;2023-02-15T17:11:59;16.20;;;9.00;;
28836;SDS011;50669;50.982;11.022;2023-02-15T17:14:27;14.70;;;9.52;;
28836;SDS011;50669;50.982;11.022;2023-02-15T17:19:54;16.15;;;10.13;;
28836;SDS011;50669;50.982;11.022;2023-02-15T17:22:23;15.38;;;10.20;;
28836;SDS011;50669;50.982;11.022;2023-02-15T17:25:00;18.00;;;10.68;;
28836;SDS011;50669;50.982;11.022;2023-02-15T17:29:59;20.20;;;10.90;;
28836;SDS011;50669;50.982;11.022;2023-02-15T17:32:27;17.60;;;10.82;;
28836;SDS011;50669;50.982;11.022;2023-02-15T17:35:06;22.52;;;10.38;;
28836;SDS011;50669;50.982;11.022;2023-02-15T17:37:59;18.63;;;11.07;;
28836;SDS011;50669;50.982;11.022;2023-02-15T17:40:29;19.60;;;11.88;;
28836;SDS011;50669;50.982;11.022;2023-02-15T17:42:57;15.70;;;10.45;;
28836;SDS011;50669;50.982;11.022;2023-02-15T17:45:25;18.23;;;11.13;;
28836;SDS011;50669;50.982;11.022;2023-02-15T17:47:57;20.92;;;11.50;;
28836;SDS011;50669;50.982;11.022;2023-02-15T17:50:26;18.15;;;11.35;;
28836;SDS011;50669;50.982;11.022;2023-02-15T17:52:58;18.13;;;10.88;;
28836;SDS011;50669;50.982;11.022;2023-02-15T17:55:27;22.15;;;12.35;;
28836;SDS011;50669;50.982;11.022;2023-02-15T17:58:09;22.85;;;12.68;;
28836;SDS011;50669;50.982;11.022;2023-02-15T18:00:38;28.35;;;15.07;;
28836;SDS011;50669;50.982;11.022;2023-02-15T18:03:33;25.67;;;13.52;;
28836;SDS011;50669;50.982;11.022;2023-02-15T18:06:20;23.58;;;13.50;;
28836;SDS011;50669;50.982;11.022;2023-02-15T18:09:05;22.00;;;12.43;;
28836;SDS011;50669;50.982;11.022;2023-02-15T18:11:52;20.48;;;12.55;;
28836;SDS011;50669;50.982;11.022;2023-02-15T18:14:18;22.05;;;12.20;;
28836;SDS011;50669;50.982;11.022;2023-02-15T18:16:43;25.75;;;12.45;;
28836;SDS011;50669;50.982;11.022;2023-02-15T18:19:14;22.70;;;13.15;;
28836;SDS011;50669;50.982;11.022;2023-02-15T18:21:44;22.58;;;12.18;;
28836;SDS011;50669;50.982;11.022;2023-02-15T18:24:14;33.90;;;18.67;;
28836;SDS011;50669;50.982;11.022;2023-02-15T18:26:42;21.55;;;13.00;;
28836;SDS011;50669;50.982;11.022;2023-02-15T18:29:08;23.50;;;12.80;;
28836;SDS011;50669;50.982;11.022;2023-02-15T18:31:34;23.58;;;13.27;;
28836;SDS011;50669;50.982;11.022;2023-02-15T18:34:00;20.88;;;12.35;;
28836;SDS011;50669;50.982;11.022;2023-02-15T18:39:08;23.48;;;12.60;;
28836;SDS011;50669;50.982;11.022;2023-02-15T18:41:48;20.48;;;12.30;;
28836;SDS011;50669;50.982;11.022;2023-02-15T18:44:16;20.50;;;12.32;;
28836;SDS011;50669;50.982;11.022;2023-02-15T18:46:42;22.05;;;14.02;;
28836;SDS011;50669;50.982;11.022;2023-02-15T18:49:08;20.50;;;12.35;;
28836;SDS011;50669;50.982;11.022;2023-02-15T18:51:33;21.30;;;12.48;;